Time;durP1;ratioP1;P1;durP2;ratioP2;P2;SDS_P1;SDS_P2;PMS_P1;PMS_P2;Temp;Humidity;BMP_temperature;BMP_pressure;BME280_temperature;BME280_humidity;BME280_pressure;Samples;Min_cycle;Max_cycle;Signal;HPM_P1;HPM_P2
2023/06/25 00:01:19;;;;;;;10.30;7.45;;;;;;;;;;4971222;28;20038;-63
2023/06/25 00:03:45;;;;;;;10.10;7.63;;;;;;;;;;4971388;28;20458;-62
2023/06/25 00:06:11;;;;;;;10.73;8.02;;;;;;;;;;4971432;28;20093;-62
2023/06/25 00:08:38;;;;;;;10.65;8.77;;;;;;;;;;4970469;28;20053;-62
2023/06/25 00:11:04;;;;;;;10.73;7.85;;;;;;;;;;4970326;28;20038;-62
2023/06/25 00:13:30;;;;;;;11.48;8.27;;;;;;;;;;4970497;28;20072;-63
2023/06/25 00:15:56;;;;;;;11.95;8.95;;;;;;;;;;4969452;28;20061;-63
2023/06/25 00:18:25;;;;;;;11.57;8.07;;;;;;;;;;4969981;28;20102;-62
2023/06/25 00:20:51;;;;;;;12.38;8.27;;;;;;;;;;4970681;28;20045;-63
2023/06/25 00:23:17;;;;;;;10.20;8.05;;;;;;;;;;4969494;28;20034;-62
2023/06/25 00:25:43;;;;;;;11.02;8.10;;;;;;;;;;4971773;28;20030;-63
2023/06/25 00:28:09;;;;;;;11.38;8.48;;;;;;;;;;4971348;28;20045;-62
2023/06/25 00:30:35;;;;;;;10.15;8.23;;;;;;;;;;4971055;28;20034;-62
2023/06/25 00:33:02;;;;;;;11.82;8.75;;;;;;;;;;4969005;28;20044;-62
2023/06/25 00:35:29;;;;;;;12.25;8.77;;;;;;;;;;4968764;28;20030;-62
2023/06/25 00:37:56;;;;;;;14.38;9.52;;;;;;;;;;4971186;28;20165;-62
2023/06/25 00:40:22;;;;;;;10.77;8.95;;;;;;;;;;4971066;28;20039;-62
2023/06/25 00:42:49;;;;;;;13.50;8.43;;;;;;;;;;4970701;28;20043;-63
2023/06/25 00:45:15;;;;;;;10.85;7.22;;;;;;;;;;4970851;28;20042;-62
2023/06/25 00:47:41;;;;;;;12.15;8.73;;;;;;;;;;4970879;28;20763;-62
2023/06/25 00:50:11;;;;;;;9.45;7.90;;;;;;;;;;4970417;28;20022;-63
2023/06/25 00:52:37;;;;;;;10.43;7.80;;;;;;;;;;4971535;28;20160;-63
2023/06/25 00:55:03;;;;;;;11.05;7.13;;;;;;;;;;4970250;28;20033;-63
2023/06/25 00:57:29;;;;;;;10.45;8.02;;;;;;;;;;4971057;28;20080;-62
2023/06/25 00:59:56;;;;;;;13.13;8.15;;;;;;;;;;4970701;28;20840;-62
2023/06/25 01:02:48;;;;;;;10.95;8.10;;;;;;;;;;4968648;28;20046;-63
2023/06/25 01:05:23;;;;;;;11.25;8.02;;;;;;;;;;4976781;28;20042;-63
2023/06/25 01:07:50;;;;;;;11.48;7.82;;;;;;;;;;4970413;28;20078;-62
2023/06/25 01:10:16;;;;;;;9.45;6.85;;;;;;;;;;4970615;28;20111;-62
2023/06/25 01:12:45;;;;;;;9.05;6.50;;;;;;;;;;4970500;28;20112;-63
2023/06/25 01:15:11;;;;;;;9.40;6.97;;;;;;;;;;4969783;28;20049;-62
2023/06/25 01:17:39;;;;;;;9.68;7.15;;;;;;;;;;4969522;28;20786;-63
2023/06/25 01:20:05;;;;;;;11.05;7.63;;;;;;;;;;4971190;28;20049;-62
2023/06/25 01:22:32;;;;;;;10.18;6.88;;;;;;;;;;4970586;28;20057;-62
2023/06/25 01:24:59;;;;;;;9.23;6.35;;;;;;;;;;4970032;28;20685;-62
2023/06/25 01:27:25;;;;;;;10.00;7.28;;;;;;;;;;4970488;28;20042;-62
2023/06/25 01:29:52;;;;;;;9.43;6.57;;;;;;;;;;4970191;28;20018;-62
2023/06/25 01:32:19;;;;;;;9.25;6.40;;;;;;;;;;4970227;28;20772;-62
2023/06/25 01:34:45;;;;;;;10.10;6.60;;;;;;;;;;4969196;28;20034;-62
2023/06/25 01:37:11;;;;;;;12.10;7.45;;;;;;;;;;4967788;28;20079;-62
2023/06/25 01:39:38;;;;;;;10.45;7.70;;;;;;;;;;4970855;28;20157;-62
2023/06/25 01:42:04;;;;;;;9.30;6.88;;;;;;;;;;4970023;28;20042;-62
2023/06/25 01:44:31;;;;;;;11.07;7.68;;;;;;;;;;4969920;28;20045;-63
2023/06/25 01:46:58;;;;;;;10.48;7.00;;;;;;;;;;4968299;28;20093;-63
2023/06/25 01:49:25;;;;;;;8.15;6.35;;;;;;;;;;4974119;28;20508;-63
2023/06/25 01:51:52;;;;;;;9.88;6.40;;;;;;;;;;4974142;28;20065;-63
2023/06/25 01:54:18;;;;;;;9.90;6.90;;;;;;;;;;4974729;28;20033;-63
2023/06/25 01:56:44;;;;;;;9.35;6.47;;;;;;;;;;4973041;28;20046;-63
2023/06/25 01:59:10;;;;;;;9.00;5.68;;;;;;;;;;4974399;28;20038;-63
2023/06/25 02:01:37;;;;;;;20.88;5.75;;;;;;;;;;4972673;28;20033;-63
2023/06/25 02:04:03;;;;;;;7.50;4.93;;;;;;;;;;4971586;28;20468;-63
2023/06/25 02:06:29;;;;;;;7.55;5.45;;;;;;;;;;4973742;28;20085;-62
2023/06/25 02:08:55;;;;;;;6.85;4.72;;;;;;;;;;4978891;28;20035;-63
2023/06/25 02:11:21;;;;;;;8.57;4.07;;;;;;;;;;4973311;28;20030;-63
2023/06/25 02:13:47;;;;;;;7.00;4.53;;;;;;;;;;4972765;28;20540;-63
2023/06/25 02:16:13;;;;;;;8.52;5.43;;;;;;;;;;4972142;28;20121;-63
2023/06/25 02:18:40;;;;;;;8.90;5.30;;;;;;;;;;4973265;28;20121;-62
2023/06/25 02:21:06;;;;;;;10.50;5.72;;;;;;;;;;4973419;28;20125;-63
2023/06/25 02:23:32;;;;;;;6.65;4.32;;;;;;;;;;4973047;28;20034;-63
2023/06/25 02:25:58;;;;;;;10.65;5.00;;;;;;;;;;4973408;28;20120;-63
2023/06/25 02:28:24;;;;;;;7.70;5.25;;;;;;;;;;4973845;28;20149;-63
2023/06/25 02:30:50;;;;;;;11.63;6.82;;;;;;;;;;4972293;28;20777;-62
2023/06/25 02:33:16;;;;;;;11.02;6.65;;;;;;;;;;4973473;28;20035;-63
2023/06/25 02:35:43;;;;;;;10.60;6.97;;;;;;;;;;4972616;28;20038;-63
2023/06/25 02:38:09;;;;;;;17.13;7.55;;;;;;;;;;4972521;28;20085;-62
2023/06/25 02:40:35;;;;;;;16.80;7.38;;;;;;;;;;4972941;28;20042;-62
2023/06/25 02:43:01;;;;;;;11.02;6.93;;;;;;;;;;4971758;28;20038;-62
2023/06/25 02:45:28;;;;;;;10.60;7.57;;;;;;;;;;4973428;28;20049;-62
2023/06/25 02:47:54;;;;;;;11.35;6.88;;;;;;;;;;4972387;28;20030;-63
2023/06/25 02:50:20;;;;;;;18.95;8.40;;;;;;;;;;4972189;28;20049;-62
2023/06/25 02:52:46;;;;;;;13.55;8.23;;;;;;;;;;4971815;28;21136;-62
2023/06/25 02:55:12;;;;;;;12.40;8.07;;;;;;;;;;4974122;28;20061;-63
2023/06/25 02:57:38;;;;;;;9.80;7.68;;;;;;;;;;4970461;28;21444;-63
2023/06/25 03:00:07;;;;;;;9.80;7.13;;;;;;;;;;4971822;28;20034;-63
2023/06/25 03:02:33;;;;;;;11.63;7.63;;;;;;;;;;4971111;28;20793;-63
2023/06/25 03:04:59;;;;;;;12.52;7.70;;;;;;;;;;4973106;28;20041;-62
2023/06/25 03:07:25;;;;;;;11.57;8.18;;;;;;;;;;4971819;28;20418;-63
2023/06/25 03:09:51;;;;;;;11.30;8.23;;;;;;;;;;4971732;28;20499;-63
2023/06/25 03:12:17;;;;;;;11.85;8.77;;;;;;;;;;4971442;28;20736;-63
2023/06/25 03:14:43;;;;;;;13.70;9.32;;;;;;;;;;4972693;28;20382;-63
2023/06/25 03:17:09;;;;;;;14.50;9.68;;;;;;;;;;4971824;28;20488;-63
2023/06/25 03:19:35;;;;;;;14.68;7.55;;;;;;;;;;4973423;28;20752;-63
2023/06/25 03:22:02;;;;;;;13.00;8.32;;;;;;;;;;4971304;28;20034;-63
2023/06/25 03:24:28;;;;;;;9.48;7.35;;;;;;;;;;4972176;28;20039;-63
2023/06/25 03:26:54;;;;;;;12.25;7.68;;;;;;;;;;4971599;28;20042;-63
2023/06/25 03:29:20;;;;;;;9.98;7.53;;;;;;;;;;4973010;28;20104;-63
2023/06/25 03:31:47;;;;;;;11.73;7.75;;;;;;;;;;4973445;28;20034;-63
2023/06/25 03:34:13;;;;;;;11.65;8.32;;;;;;;;;;4972870;28;20034;-63
2023/06/25 03:36:39;;;;;;;11.18;8.50;;;;;;;;;;4972266;28;20125;-63
2023/06/25 03:39:05;;;;;;;11.30;7.80;;;;;;;;;;4969969;28;20117;-63
2023/06/25 03:41:31;;;;;;;13.02;9.38;;;;;;;;;;4969839;28;20045;-63
2023/06/25 03:43:57;;;;;;;13.02;8.15;;;;;;;;;;4972220;28;20033;-63
2023/06/25 03:46:23;;;;;;;11.95;8.63;;;;;;;;;;4972269;28;20042;-62
2023/06/25 03:48:49;;;;;;;13.02;9.18;;;;;;;;;;4971825;28;20046;-63
2023/06/25 03:51:15;;;;;;;12.27;9.25;;;;;;;;;;4972186;28;20034;-62
2023/06/25 03:53:41;;;;;;;12.60;9.63;;;;;;;;;;4972598;28;20042;-62
2023/06/25 03:56:07;;;;;;;12.45;8.02;;;;;;;;;;4971245;28;20034;-63
2023/06/25 03:58:37;;;;;;;12.57;9.40;;;;;;;;;;4970816;28;20038;-63
2023/06/25 04:01:03;;;;;;;11.93;9.63;;;;;;;;;;4972526;28;20037;-63
2023/06/25 04:03:29;;;;;;;19.75;9.93;;;;;;;;;;4969256;28;20038;-63
2023/06/25 04:05:55;;;;;;;13.73;9.70;;;;;;;;;;4972111;28;20196;-63
2023/06/25 04:08:21;;;;;;;12.00;8.27;;;;;;;;;;4971794;28;20027;-63
2023/06/25 04:10:47;;;;;;;10.80;8.20;;;;;;;;;;4970338;28;20109;-63
2023/06/25 04:13:13;;;;;;;17.13;9.60;;;;;;;;;;4972160;28;20048;-62
2023/06/25 04:15:39;;;;;;;15.10;9.52;;;;;;;;;;4972214;28;20129;-63
2023/06/25 04:18:05;;;;;;;13.65;8.98;;;;;;;;;;4971716;28;20112;-63
2023/06/25 04:20:31;;;;;;;13.23;9.60;;;;;;;;;;4971139;28;21816;-63
2023/06/25 04:22:57;;;;;;;14.73;9.57;;;;;;;;;;4970104;28;20646;-62
2023/06/25 04:25:24;;;;;;;13.98;9.73;;;;;;;;;;4971054;28;20128;-63
2023/06/25 04:27:50;;;;;;;15.80;10.07;;;;;;;;;;4971865;28;20042;-63
2023/06/25 04:30:16;;;;;;;13.88;9.02;;;;;;;;;;4972139;28;20822;-63
2023/06/25 04:32:42;;;;;;;14.60;9.73;;;;;;;;;;4972610;28;20125;-63
2023/06/25 04:35:08;;;;;;;14.73;10.40;;;;;;;;;;4971070;28;20041;-63
2023/06/25 04:37:34;;;;;;;13.57;9.82;;;;;;;;;;4971765;28;20046;-63
2023/06/25 04:40:02;;;;;;;14.25;9.18;;;;;;;;;;4970994;28;20505;-62
2023/06/25 04:42:28;;;;;;;19.55;9.88;;;;;;;;;;4969573;28;20041;-62
2023/06/25 04:44:55;;;;;;;13.75;9.45;;;;;;;;;;4971768;28;20077;-62
2023/06/25 04:47:21;;;;;;;18.73;10.32;;;;;;;;;;4971645;28;20042;-62
2023/06/25 04:49:47;;;;;;;13.82;9.75;;;;;;;;;;4970644;28;20448;-63
2023/06/25 04:52:18;;;;;;;16.85;9.60;;;;;;;;;;4971322;28;20030;-62
2023/06/25 04:54:44;;;;;;;13.65;10.32;;;;;;;;;;4970832;28;20392;-62
2023/06/25 04:57:10;;;;;;;15.23;9.50;;;;;;;;;;4971655;28;20038;-63
2023/06/25 04:59:36;;;;;;;14.07;10.43;;;;;;;;;;4968913;28;20088;-63
2023/06/25 05:02:03;;;;;;;12.63;9.32;;;;;;;;;;4975613;28;20049;-63
2023/06/25 05:04:29;;;;;;;14.20;10.55;;;;;;;;;;4971200;28;20516;-63
2023/06/25 05:06:55;;;;;;;15.88;10.13;;;;;;;;;;4970845;28;20034;-63
2023/06/25 05:09:21;;;;;;;13.43;10.10;;;;;;;;;;4970769;28;20034;-63
2023/06/25 05:11:47;;;;;;;13.63;9.93;;;;;;;;;;4970956;28;20035;-63
2023/06/25 05:14:13;;;;;;;13.05;9.00;;;;;;;;;;4971528;28;20026;-63
2023/06/25 05:16:39;;;;;;;13.23;9.05;;;;;;;;;;4971626;28;20030;-63
2023/06/25 05:19:05;;;;;;;13.32;9.38;;;;;;;;;;4970543;28;20041;-63
2023/06/25 05:21:31;;;;;;;13.98;8.68;;;;;;;;;;4971065;28;20042;-63
2023/06/25 05:23:58;;;;;;;14.68;9.32;;;;;;;;;;4968891;28;20034;-63
2023/06/25 05:26:24;;;;;;;17.75;10.13;;;;;;;;;;4970609;28;20061;-63
2023/06/25 05:28:51;;;;;;;13.18;9.50;;;;;;;;;;4970031;28;20038;-63
2023/06/25 05:31:17;;;;;;;15.85;9.57;;;;;;;;;;4969898;28;20081;-63
2023/06/25 05:33:43;;;;;;;14.75;9.05;;;;;;;;;;4971442;28;20041;-63
2023/06/25 05:36:09;;;;;;;12.57;7.88;;;;;;;;;;4970271;28;20065;-63
2023/06/25 05:38:35;;;;;;;15.80;9.05;;;;;;;;;;4969201;28;20089;-63
2023/06/25 05:41:01;;;;;;;12.90;8.18;;;;;;;;;;4970158;28;21865;-63
2023/06/25 05:43:27;;;;;;;16.88;8.43;;;;;;;;;;4970594;28;20080;-63
2023/06/25 05:45:53;;;;;;;13.65;7.60;;;;;;;;;;4971583;28;20999;-63
2023/06/25 05:48:19;;;;;;;13.98;7.68;;;;;;;;;;4970351;28;20066;-63
2023/06/25 05:50:45;;;;;;;14.40;7.60;;;;;;;;;;4971016;28;20026;-63
2023/06/25 05:53:11;;;;;;;11.07;6.80;;;;;;;;;;4970714;28;20038;-63
2023/06/25 05:55:37;;;;;;;14.82;7.30;;;;;;;;;;4970212;28;20034;-63
2023/06/25 05:58:03;;;;;;;12.32;6.85;;;;;;;;;;4971324;28;20049;-63
2023/06/25 06:00:29;;;;;;;11.77;6.63;;;;;;;;;;4970013;28;20409;-63
2023/06/25 06:02:56;;;;;;;11.23;6.57;;;;;;;;;;4970138;28;20030;-63
2023/06/25 06:05:22;;;;;;;11.48;6.38;;;;;;;;;;4970107;28;20113;-63
2023/06/25 06:07:48;;;;;;;9.50;6.05;;;;;;;;;;4970452;28;20046;-63
2023/06/25 06:10:15;;;;;;;9.90;6.03;;;;;;;;;;4970131;28;20030;-63
2023/06/25 06:12:41;;;;;;;9.68;6.10;;;;;;;;;;4970724;28;20647;-63
2023/06/25 06:15:07;;;;;;;10.00;5.35;;;;;;;;;;4970588;28;20070;-63
2023/06/25 06:17:33;;;;;;;9.35;5.93;;;;;;;;;;4969379;28;20525;-63
2023/06/25 06:19:59;;;;;;;10.23;5.88;;;;;;;;;;4970777;28;20026;-63
2023/06/25 06:22:25;;;;;;;10.80;5.80;;;;;;;;;;4968636;28;20034;-62
2023/06/25 06:24:51;;;;;;;8.70;5.40;;;;;;;;;;4969475;28;20045;-63
2023/06/25 06:27:17;;;;;;;10.18;4.93;;;;;;;;;;4970196;28;20133;-62
2023/06/25 06:29:43;;;;;;;9.77;5.55;;;;;;;;;;4970726;28;20030;-62
2023/06/25 06:32:10;;;;;;;10.05;5.65;;;;;;;;;;4969973;28;20034;-62
2023/06/25 06:34:36;;;;;;;8.75;5.28;;;;;;;;;;4972405;28;20745;-62
2023/06/25 06:37:03;;;;;;;8.05;5.45;;;;;;;;;;4974360;28;20131;-62
2023/06/25 06:39:29;;;;;;;8.52;5.60;;;;;;;;;;4973902;28;20439;-62
2023/06/25 06:41:55;;;;;;;8.85;5.53;;;;;;;;;;4973534;28;20043;-62
2023/06/25 06:44:21;;;;;;;8.45;5.57;;;;;;;;;;4973936;28;20069;-62
2023/06/25 06:46:47;;;;;;;9.48;5.90;;;;;;;;;;4973622;28;20046;-62
2023/06/25 06:49:13;;;;;;;8.85;5.97;;;;;;;;;;4972278;28;20037;-62
2023/06/25 06:51:41;;;;;;;7.53;5.47;;;;;;;;;;4974244;28;21004;-62
2023/06/25 06:54:07;;;;;;;9.52;6.70;;;;;;;;;;4973784;28;20921;-62
2023/06/25 06:56:33;;;;;;;8.45;6.10;;;;;;;;;;4972985;28;20802;-62
2023/06/25 06:58:59;;;;;;;8.43;6.07;;;;;;;;;;4972128;28;20062;-62
2023/06/25 07:01:26;;;;;;;8.63;5.72;;;;;;;;;;4973388;28;20677;-62
2023/06/25 07:03:52;;;;;;;11.93;6.10;;;;;;;;;;4972905;28;20038;-62
2023/06/25 07:06:18;;;;;;;8.63;6.28;;;;;;;;;;4971498;28;20065;-62
2023/06/25 07:08:44;;;;;;;8.23;6.60;;;;;;;;;;4973426;28;20030;-62
2023/06/25 07:11:10;;;;;;;12.80;6.72;;;;;;;;;;4972509;28;20041;-62
2023/06/25 07:13:36;;;;;;;8.90;6.80;;;;;;;;;;4973454;28;20504;-62
2023/06/25 07:16:02;;;;;;;8.90;6.25;;;;;;;;;;4973753;28;20041;-62
2023/06/25 07:18:29;;;;;;;9.32;7.10;;;;;;;;;;4972647;28;20049;-62
2023/06/25 07:20:55;;;;;;;8.63;5.95;;;;;;;;;;4972113;28;20805;-62
2023/06/25 07:23:21;;;;;;;9.02;6.63;;;;;;;;;;4972580;28;20034;-62
2023/06/25 07:25:47;;;;;;;10.07;6.55;;;;;;;;;;4973003;28;20030;-62
2023/06/25 07:28:13;;;;;;;9.20;7.15;;;;;;;;;;4972734;28;20041;-62
2023/06/25 07:30:39;;;;;;;10.00;6.95;;;;;;;;;;4973331;28;20401;-62
2023/06/25 07:33:05;;;;;;;10.07;6.10;;;;;;;;;;4972613;28;21717;-62
2023/06/25 07:35:31;;;;;;;9.77;6.15;;;;;;;;;;4973175;28;20031;-62
2023/06/25 07:37:57;;;;;;;10.48;7.28;;;;;;;;;;4972994;28;20034;-62
2023/06/25 07:40:23;;;;;;;9.00;6.75;;;;;;;;;;4972053;28;20030;-62
2023/06/25 07:42:49;;;;;;;10.43;6.68;;;;;;;;;;4973180;28;20160;-62
2023/06/25 07:45:15;;;;;;;8.57;6.93;;;;;;;;;;4971830;28;20080;-62
2023/06/25 07:47:41;;;;;;;8.75;6.47;;;;;;;;;;4972308;28;20053;-62
2023/06/25 07:50:08;;;;;;;10.80;6.57;;;;;;;;;;4972160;28;20026;-62
2023/06/25 07:52:34;;;;;;;9.70;7.25;;;;;;;;;;4972895;28;20077;-62
2023/06/25 07:55:00;;;;;;;8.90;6.63;;;;;;;;;;4970719;28;20954;-62
2023/06/25 07:57:26;;;;;;;9.30;7.05;;;;;;;;;;4970426;28;20065;-62
2023/06/25 07:59:53;;;;;;;8.85;7.07;;;;;;;;;;4970713;28;20088;-62
2023/06/25 08:02:19;;;;;;;9.32;7.13;;;;;;;;;;4968716;28;20038;-62
2023/06/25 08:04:45;;;;;;;10.48;7.00;;;;;;;;;;4971355;28;21922;-62
2023/06/25 08:07:11;;;;;;;10.75;7.95;;;;;;;;;;4970606;28;20213;-62
2023/06/25 08:09:37;;;;;;;9.00;7.40;;;;;;;;;;4971068;28;20121;-62
2023/06/25 08:12:03;;;;;;;10.60;6.93;;;;;;;;;;4969329;28;20058;-62
2023/06/25 08:14:29;;;;;;;9.45;7.53;;;;;;;;;;4971163;28;20046;-62
2023/06/25 08:16:55;;;;;;;9.40;7.80;;;;;;;;;;4969905;28;20038;-62
2023/06/25 08:19:21;;;;;;;10.30;8.00;;;;;;;;;;4970514;28;20080;-62
2023/06/25 08:21:48;;;;;;;10.02;8.18;;;;;;;;;;4970239;28;20088;-62
2023/06/25 08:24:14;;;;;;;10.05;6.70;;;;;;;;;;4969636;28;20033;-62
2023/06/25 08:26:40;;;;;;;10.38;7.70;;;;;;;;;;4971117;28;20089;-62
2023/06/25 08:29:06;;;;;;;10.00;7.53;;;;;;;;;;4968184;28;20034;-62
2023/06/25 08:31:32;;;;;;;13.00;7.28;;;;;;;;;;4969095;28;20038;-63
2023/06/25 08:33:59;;;;;;;8.57;7.38;;;;;;;;;;4970632;28;20076;-62
2023/06/25 08:36:25;;;;;;;10.70;7.70;;;;;;;;;;4971913;28;21336;-62
2023/06/25 08:38:51;;;;;;;9.50;7.68;;;;;;;;;;4970418;28;20084;-62
2023/06/25 08:41:17;;;;;;;9.80;7.80;;;;;;;;;;4970041;28;20085;-62
2023/06/25 08:43:43;;;;;;;8.52;7.20;;;;;;;;;;4969423;28;20104;-62
2023/06/25 08:46:10;;;;;;;12.80;7.60;;;;;;;;;;4969685;28;20038;-62
2023/06/25 08:48:37;;;;;;;10.55;6.88;;;;;;;;;;4969956;28;20065;-62
2023/06/25 08:51:06;;;;;;;9.10;6.93;;;;;;;;;;4970794;28;20044;-62
2023/06/25 08:53:32;;;;;;;10.73;7.38;;;;;;;;;;4969197;28;20034;-62
2023/06/25 08:56:00;;;;;;;9.18;7.15;;;;;;;;;;4969415;28;20038;-62
2023/06/25 08:58:28;;;;;;;8.35;6.72;;;;;;;;;;4969252;28;20038;-63
2023/06/25 09:00:54;;;;;;;9.48;7.25;;;;;;;;;;4970575;28;20676;-62
2023/06/25 09:03:21;;;;;;;9.80;6.53;;;;;;;;;;4969689;28;20628;-62
2023/06/25 09:05:54;;;;;;;8.27;5.80;;;;;;;;;;4970558;28;20045;-63
2023/06/25 09:08:20;;;;;;;;;;;;;;;;;;4969299;28;20125;-62
2023/06/25 09:10:49;;;;;;;9.52;6.35;;;;;;;;;;4970101;28;20863;-62
2023/06/25 09:13:20;;;;;;;7.95;5.00;;;;;;;;;;4971111;28;20041;-62
2023/06/25 09:15:46;;;;;;;8.48;5.35;;;;;;;;;;4969564;28;20068;-62
2023/06/25 09:18:12;;;;;;;8.63;4.85;;;;;;;;;;4969495;28;20030;-62
2023/06/25 09:20:40;;;;;;;7.90;4.90;;;;;;;;;;4965586;28;20104;-63
2023/06/25 09:23:06;;;;;;;7.65;5.57;;;;;;;;;;4965420;28;20034;-62
2023/06/25 09:25:32;;;;;;;8.18;5.30;;;;;;;;;;4965265;28;21792;-62
2023/06/25 09:27:59;;;;;;;8.73;4.82;;;;;;;;;;4966797;28;20050;-62
2023/06/25 09:30:25;;;;;;;7.32;4.22;;;;;;;;;;4966275;28;20034;-62
2023/06/25 09:32:52;;;;;;;8.60;4.63;;;;;;;;;;4967405;28;20045;-62
2023/06/25 09:35:22;;;;;;;6.82;4.10;;;;;;;;;;4967353;28;20030;-63
2023/06/25 09:37:50;;;;;;;5.93;4.25;;;;;;;;;;4967718;28;20485;-62
2023/06/25 09:40:16;;;;;;;7.55;4.60;;;;;;;;;;4967288;28;20042;-62
2023/06/25 09:42:46;;;;;;;5.90;3.78;;;;;;;;;;4967430;28;20116;-62
2023/06/25 09:45:15;;;;;;;7.32;4.88;;;;;;;;;;4967096;28;20034;-62
2023/06/25 09:47:42;;;;;;;7.10;4.63;;;;;;;;;;4966116;28;20738;-62
2023/06/25 09:50:10;;;;;;;6.15;4.50;;;;;;;;;;4966729;28;21073;-62
2023/06/25 09:52:37;;;;;;;8.55;4.25;;;;;;;;;;4966994;28;20109;-62
2023/06/25 09:55:04;;;;;;;13.00;4.88;;;;;;;;;;4967071;28;20096;-62
2023/06/25 09:57:30;;;;;;;7.88;4.82;;;;;;;;;;4967104;28;20718;-62
2023/06/25 09:59:56;;;;;;;7.45;5.22;;;;;;;;;;4967375;28;20053;-62
2023/06/25 10:02:22;;;;;;;7.70;4.75;;;;;;;;;;4967639;28;20042;-62
2023/06/25 10:04:49;;;;;;;6.85;4.70;;;;;;;;;;4967040;28;20084;-62
2023/06/25 10:07:15;;;;;;;6.18;4.30;;;;;;;;;;4966107;28;20030;-62
2023/06/25 10:09:52;;;;;;;7.70;4.38;;;;;;;;;;4968048;28;20107;-62
2023/06/25 10:12:19;;;;;;;6.22;3.80;;;;;;;;;;4970872;28;20026;-62
2023/06/25 10:14:45;;;;;;;6.85;3.97;;;;;;;;;;4971244;28;20034;-61
2023/06/25 10:17:11;;;;;;;7.35;4.95;;;;;;;;;;4970744;28;20042;-61
2023/06/25 10:19:37;;;;;;;9.15;5.05;;;;;;;;;;4971301;28;20046;-61
2023/06/25 10:22:06;;;;;;;7.30;5.05;;;;;;;;;;4971376;28;20764;-61
2023/06/25 10:24:40;;;;;;;7.97;4.72;;;;;;;;;;4971015;28;20030;-61
2023/06/25 10:27:06;;;;;;;6.43;4.60;;;;;;;;;;4970668;28;20081;-61
2023/06/25 10:29:41;;;;;;;6.55;4.07;;;;;;;;;;4971451;28;21168;-61
2023/06/25 10:32:07;;;;;;;5.78;3.97;;;;;;;;;;4970864;28;20038;-61
2023/06/25 10:34:40;;;;;;;7.07;4.28;;;;;;;;;;4971894;28;20038;-61
2023/06/25 10:37:06;;;;;;;7.22;4.60;;;;;;;;;;4971757;28;20056;-61
2023/06/25 10:39:39;;;;;;;6.32;3.70;;;;;;;;;;4970843;28;20042;-61
2023/06/25 10:42:05;;;;;;;;;;;;;;;;;;4971754;28;20088;-61
2023/06/25 10:44:32;;;;;;;7.03;4.15;;;;;;;;;;4969781;28;20062;-61
2023/06/25 10:47:10;;;;;;;6.43;4.00;;;;;;;;;;4970037;28;20030;-61
2023/06/25 10:49:37;;;;;;;5.82;4.10;;;;;;;;;;4970885;28;20036;-61
2023/06/25 10:52:04;;;;;;;6.47;4.32;;;;;;;;;;4970741;28;20030;-61
2023/06/25 10:54:34;;;;;;;5.60;3.83;;;;;;;;;;4970721;28;20030;-61
2023/06/25 10:57:27;;;;;;;5.95;3.90;;;;;;;;;;4970718;28;20034;-61
2023/06/25 10:59:53;;;;;;;4.95;3.28;;;;;;;;;;4969545;28;20207;-61
2023/06/25 11:02:20;;;;;;;6.05;3.90;;;;;;;;;;4970946;28;20082;-61
2023/06/25 11:04:53;;;;;;;6.25;3.67;;;;;;;;;;4971022;28;20089;-61
2023/06/25 11:07:19;;;;;;;5.85;3.85;;;;;;;;;;4969160;28;20042;-61
2023/06/25 11:09:50;;;;;;;5.20;3.60;;;;;;;;;;4970169;28;20030;-61
2023/06/25 11:12:17;;;;;;;5.45;3.42;;;;;;;;;;4969512;28;20022;-61
2023/06/25 11:14:44;;;;;;;5.50;3.13;;;;;;;;;;4970540;28;20698;-61
2023/06/25 11:17:10;;;;;;;5.88;3.60;;;;;;;;;;4969573;28;20176;-61
2023/06/25 11:19:36;;;;;;;5.60;3.40;;;;;;;;;;4970388;28;20759;-61
2023/06/25 11:22:07;;;;;;;6.82;3.63;;;;;;;;;;4970313;28;20760;-62
2023/06/25 11:24:39;;;;;;;7.60;3.22;;;;;;;;;;4968854;28;20045;-62
2023/06/25 11:27:05;;;;;;;6.63;3.85;;;;;;;;;;4967947;28;20085;-62
2023/06/25 11:29:36;;;;;;;7.07;4.13;;;;;;;;;;4968771;28;20474;-62
2023/06/25 11:32:05;;;;;;;6.43;3.90;;;;;;;;;;4967301;28;20045;-62
2023/06/25 11:34:31;;;;;;;6.28;3.85;;;;;;;;;;4960031;28;20971;-62
2023/06/25 11:36:57;;;;;;;5.15;3.55;;;;;;;;;;4963516;28;20829;-62
2023/06/25 11:39:23;;;;;;;5.75;3.95;;;;;;;;;;4963133;28;20488;-62
2023/06/25 11:41:49;;;;;;;6.03;3.67;;;;;;;;;;4968906;28;20038;-62
2023/06/25 11:44:16;;;;;;;5.85;3.83;;;;;;;;;;4967899;28;20049;-62
2023/06/25 11:46:42;;;;;;;7.60;3.70;;;;;;;;;;4967106;28;20080;-62
2023/06/25 11:49:09;;;;;;;6.57;3.55;;;;;;;;;;4968233;28;20047;-62
2023/06/25 11:51:35;;;;;;;7.20;2.85;;;;;;;;;;4969532;28;20033;-62
2023/06/25 11:54:01;;;;;;;5.28;3.00;;;;;;;;;;4967502;28;20038;-62
2023/06/25 11:56:27;;;;;;;4.68;2.90;;;;;;;;;;4967448;28;20026;-62
2023/06/25 11:58:53;;;;;;;5.70;3.03;;;;;;;;;;4968677;28;20039;-61
2023/06/25 12:01:19;;;;;;;5.45;2.72;;;;;;;;;;4969229;28;20046;-61
2023/06/25 12:03:45;;;;;;;5.20;3.20;;;;;;;;;;4967101;28;20039;-61
2023/06/25 12:06:11;;;;;;;6.55;3.13;;;;;;;;;;4968294;28;20049;-61
2023/06/25 12:08:37;;;;;;;5.13;2.95;;;;;;;;;;4967815;28;20034;-61
2023/06/25 12:11:03;;;;;;;4.90;2.78;;;;;;;;;;4979972;28;20034;-61
2023/06/25 12:13:29;;;;;;;8.88;3.50;;;;;;;;;;4966185;28;20917;-61
2023/06/25 12:15:56;;;;;;;7.63;3.55;;;;;;;;;;4968937;28;21141;-61
2023/06/25 12:18:22;;;;;;;5.45;3.00;;;;;;;;;;4968068;28;20042;-61
2023/06/25 12:20:48;;;;;;;5.93;2.88;;;;;;;;;;4968727;28;20049;-61
2023/06/25 12:23:14;;;;;;;5.45;3.40;;;;;;;;;;4967517;28;20039;-61
2023/06/25 12:25:40;;;;;;;4.78;2.75;;;;;;;;;;4968403;28;20089;-61
2023/06/25 12:28:07;;;;;;;5.53;3.20;;;;;;;;;;4967190;28;20701;-61
2023/06/25 12:30:33;;;;;;;5.03;2.85;;;;;;;;;;4968389;28;20041;-61
2023/06/25 12:32:59;;;;;;;4.97;2.65;;;;;;;;;;4967270;28;20507;-61
2023/06/25 12:35:26;;;;;;;6.60;3.63;;;;;;;;;;4967394;28;20038;-61
2023/06/25 12:37:52;;;;;;;7.05;3.28;;;;;;;;;;4980107;28;20068;-61
2023/06/25 12:40:18;;;;;;;7.32;3.33;;;;;;;;;;4967577;28;20049;-61
2023/06/25 12:42:44;;;;;;;5.97;3.25;;;;;;;;;;4967854;28;20081;-61
2023/06/25 12:45:10;;;;;;;5.95;3.22;;;;;;;;;;4968494;28;20108;-61
2023/06/25 12:47:36;;;;;;;4.95;2.90;;;;;;;;;;4959591;28;20042;-61
2023/06/25 12:50:02;;;;;;;10.25;3.13;;;;;;;;;;4956182;28;20037;-61
2023/06/25 12:52:30;;;;;;;8.38;3.85;;;;;;;;;;4959998;28;20060;-61
2023/06/25 12:54:56;;;;;;;6.07;3.60;;;;;;;;;;4960709;28;20141;-61
2023/06/25 12:57:23;;;;;;;5.93;3.95;;;;;;;;;;4960694;28;20073;-61
2023/06/25 12:59:49;;;;;;;6.18;4.05;;;;;;;;;;4961021;28;20125;-61
2023/06/25 13:02:15;;;;;;;7.53;4.10;;;;;;;;;;4961323;28;20665;-62
2023/06/25 13:04:41;;;;;;;5.53;3.65;;;;;;;;;;4960283;28;20148;-61
2023/06/25 13:07:07;;;;;;;6.13;3.90;;;;;;;;;;4961093;28;20030;-61
2023/06/25 13:09:34;;;;;;;6.32;3.65;;;;;;;;;;4963233;28;20054;-61
2023/06/25 13:12:00;;;;;;;6.75;4.00;;;;;;;;;;4962534;28;20034;-62
2023/06/25 13:14:26;;;;;;;5.93;3.83;;;;;;;;;;4961014;28;20050;-61
2023/06/25 13:16:52;;;;;;;7.63;3.83;;;;;;;;;;4964034;28;20081;-61
2023/06/25 13:19:18;;;;;;;7.28;3.72;;;;;;;;;;4965564;28;20042;-61
2023/06/25 13:21:46;;;;;;;8.27;4.00;;;;;;;;;;4967037;28;20109;-61
2023/06/25 13:24:12;;;;;;;6.20;4.07;;;;;;;;;;4967788;28;20781;-61
2023/06/25 13:26:38;;;;;;;6.88;3.95;;;;;;;;;;4966621;28;20034;-61
2023/06/25 13:29:05;;;;;;;6.18;3.72;;;;;;;;;;4965595;28;20026;-62
2023/06/25 13:31:31;;;;;;;5.90;3.90;;;;;;;;;;4964853;28;20034;-61
2023/06/25 13:33:57;;;;;;;10.82;4.00;;;;;;;;;;4965903;28;20050;-61
2023/06/25 13:36:23;;;;;;;6.85;3.78;;;;;;;;;;4965104;28;20033;-61
2023/06/25 13:38:49;;;;;;;6.28;4.07;;;;;;;;;;4967003;28;20428;-61
2023/06/25 13:41:15;;;;;;;6.28;3.63;;;;;;;;;;4966762;28;20409;-61
2023/06/25 13:43:41;;;;;;;5.60;3.72;;;;;;;;;;4969577;28;20591;-61
2023/06/25 13:46:07;;;;;;;6.82;3.97;;;;;;;;;;4972347;28;20039;-63
2023/06/25 13:48:33;;;;;;;7.93;3.97;;;;;;;;;;4971292;28;20039;-62
2023/06/25 13:51:00;;;;;;;6.18;3.60;;;;;;;;;;4972537;28;20076;-62
2023/06/25 13:53:26;;;;;;;5.90;3.55;;;;;;;;;;4970242;28;20038;-62
2023/06/25 13:55:53;;;;;;;6.07;3.92;;;;;;;;;;4971646;28;20034;-62
2023/06/25 13:58:19;;;;;;;5.22;3.40;;;;;;;;;;4971382;28;20043;-62
2023/06/25 14:00:45;;;;;;;7.72;3.95;;;;;;;;;;4971378;28;20042;-62
2023/06/25 14:03:11;;;;;;;5.72;3.92;;;;;;;;;;4971173;28;20077;-62
2023/06/25 14:05:37;;;;;;;5.85;4.00;;;;;;;;;;4970934;28;20031;-62
2023/06/25 14:08:03;;;;;;;6.00;4.07;;;;;;;;;;4971659;28;20072;-62
2023/06/25 14:10:30;;;;;;;5.63;3.92;;;;;;;;;;4971525;28;20031;-62
2023/06/25 14:12:58;;;;;;;8.02;4.28;;;;;;;;;;4970796;28;20038;-62
2023/06/25 14:15:25;;;;;;;7.28;4.15;;;;;;;;;;4970848;28;20520;-62
2023/06/25 14:17:51;;;;;;;7.00;4.00;;;;;;;;;;4970056;28;20042;-62
2023/06/25 14:20:17;;;;;;;7.20;4.10;;;;;;;;;;4971123;28;20055;-62
2023/06/25 14:22:43;;;;;;;6.65;4.45;;;;;;;;;;4970915;28;20091;-62
2023/06/25 14:25:09;;;;;;;6.07;3.95;;;;;;;;;;4970474;28;20045;-62
2023/06/25 14:27:35;;;;;;;7.45;3.88;;;;;;;;;;4968299;28;20085;-62
2023/06/25 14:30:01;;;;;;;7.22;4.85;;;;;;;;;;4969258;28;20033;-62
2023/06/25 14:32:27;;;;;;;6.93;5.10;;;;;;;;;;4970493;28;20466;-62
2023/06/25 14:34:53;;;;;;;7.05;4.30;;;;;;;;;;4970929;28;20046;-62